Richmond, Virginia
Current Conditions -  °F | °C
As of 9:54 AM on Saturday 25 Oct 2014 (Local Time) from KRIC Reporting Station
Clear Clear  
Wind Chill: 54°   Ceiling: Unl
Heat Index: 54°   Visibility: 10mi
Dew Point: 44°   Wind: 0mph
Humidity: 69%   Direction: NA
Pressure: 30"   Gusts: NA
Location:  37.54°N, 77.43°W
Report Text: KRIC 251354Z 00000KT 10SM CLR 12/07 A3000 RMK AO2 SLP163 T01220067
Loading
Personal Weather Stations






























Interactive Weather Map
Tropical Storm Tracking
New forecast layout! Learn more

10-Day Weather Forecast

Advertisements
Track Severe Weather on mobile